Time;durP1;ratioP1;P1;durP2;ratioP2;P2;SDS_P1;SDS_P2;PMS_P1;PMS_P2;Temp;Humidity;BMP_temperature;BMP_pressure;BME280_temperature;BME280_humidity;BME280_pressure;Samples;Min_cycle;Max_cycle;Signal;HPM_P1;HPM_P2
2021/03/09 00:01:03;;;;;;;132.55;47.78;;;5.80;92.10;;;6.04;76.04;100940.25;5093538;28;20048;-81
2021/03/09 00:03:29;;;;;;;124.90;47.33;;;5.80;92.20;;;6.04;76.34;100939.41;5094270;28;20047;-81
2021/03/09 00:05:56;;;;;;;129.55;49.65;;;5.90;92.30;;;6.03;75.62;100946.66;5094697;28;20052;-81
2021/03/09 00:08:24;;;;;;;123.28;49.60;;;5.90;92.30;;;6.00;76.32;100941.56;5093517;28;20040;-81
2021/03/09 00:10:51;;;;;;;125.93;48.40;;;5.80;92.30;;;6.02;76.14;100944.13;5094034;28;20068;-81
2021/03/09 00:13:17;;;;;;;131.77;49.03;;;6.00;92.50;;;6.04;76.15;100944.81;5094491;28;20074;-81
2021/03/09 00:15:44;;;;;;;129.02;49.22;;;5.80;92.60;;;6.01;76.56;100942.41;5094942;28;20098;-81
2021/03/09 00:18:12;;;;;;;123.55;47.58;;;5.80;92.80;;;6.02;76.59;100941.41;5093763;28;20055;-81
2021/03/09 00:20:38;;;;;;;120.50;47.00;;;5.80;92.90;;;6.00;76.74;100933.44;5094252;28;20067;-81
2021/03/09 00:23:05;;;;;;;125.85;49.65;;;5.80;93.00;;;6.04;76.51;100937.56;5094700;28;20488;-81
2021/03/09 00:25:33;;;;;;;124.40;46.35;;;5.90;93.20;;;6.06;76.82;100932.03;5094518;28;20043;-81
2021/03/09 00:28:00;;;;;;;126.10;48.60;;;5.80;93.10;;;6.00;76.82;100929.91;5093631;28;20554;-81
2021/03/09 00:30:27;;;;;;;116.63;45.28;;;6.00;93.40;;;5.96;76.89;100929.34;5093926;28;20499;-81
2021/03/09 00:32:53;;;;;;;122.85;47.72;;;5.80;93.50;;;5.99;76.83;100929.03;5092349;28;20631;-81
2021/03/09 00:35:20;;;;;;;117.70;46.63;;;5.80;93.60;;;5.98;77.22;100926.50;5093894;28;20074;-80
2021/03/09 00:37:47;;;;;;;116.93;46.58;;;5.80;93.80;;;5.98;77.11;100929.19;5093893;28;20052;-81
2021/03/09 00:40:14;;;;;;;113.45;44.25;;;5.70;94.00;;;5.96;77.33;100921.22;5093738;28;20451;-81
2021/03/09 00:42:42;;;;;;;113.80;43.28;;;5.80;94.00;;;5.97;77.55;100922.06;5094672;28;20079;-81
2021/03/09 00:45:10;;;;;;;113.35;44.40;;;5.80;94.00;;;5.98;77.69;100931.91;5094752;28;20064;-81
2021/03/09 00:47:37;;;;;;;123.68;46.70;;;5.80;94.10;;;5.96;77.60;100923.94;5093966;28;20075;-81
2021/03/09 00:50:05;;;;;;;114.68;45.25;;;5.80;94.20;;;5.95;77.66;100919.50;5094118;28;20052;-81
2021/03/09 00:52:32;;;;;;;117.13;45.83;;;5.80;94.30;;;5.94;77.75;100917.78;5085725;28;20041;-81
2021/03/09 00:54:58;;;;;;;111.20;44.92;;;5.80;94.50;;;5.98;77.72;100923.78;5053537;28;20049;-81
2021/03/09 00:57:25;;;;;;;122.28;45.35;;;5.80;94.60;;;5.99;77.92;100920.09;5051390;28;20523;-81
2021/03/09 00:59:53;;;;;;;110.93;43.03;;;5.80;94.70;;;5.95;77.57;100913.22;5053699;28;20049;-81
2021/03/09 01:02:19;;;;;;;120.22;47.25;;;5.80;94.70;;;5.96;77.83;100914.94;5053668;28;20037;-81
2021/03/09 01:04:46;;;;;;;115.47;44.60;;;5.80;94.90;;;5.97;78.25;100909.41;5053280;28;20044;-81
2021/03/09 01:07:13;;;;;;;118.35;45.35;;;5.70;95.00;;;5.94;77.89;100914.22;5052477;28;20057;-81
2021/03/09 01:09:40;;;;;;;108.47;44.40;;;5.70;95.00;;;5.92;78.62;100914.38;5069675;28;20104;-81
2021/03/09 01:12:08;;;;;;;105.00;44.15;;;5.70;95.20;;;5.93;78.41;100918.78;5073088;28;20067;-81
2021/03/09 01:14:34;;;;;;;110.32;45.05;;;5.70;95.20;;;5.93;78.18;100918.78;5073586;28;20060;-81
2021/03/09 01:17:02;;;;;;;111.00;43.03;;;5.80;95.10;;;5.91;78.25;100911.81;5072640;28;20052;-81
2021/03/09 01:19:29;;;;;;;113.20;44.75;;;5.70;95.30;;;5.92;78.07;100914.38;5072440;28;20052;-81
2021/03/09 01:21:56;;;;;;;105.40;45.17;;;5.70;95.30;;;5.95;78.48;100911.41;5072908;28;20072;-81
2021/03/09 01:24:23;;;;;;;105.95;43.45;;;5.70;95.30;;;5.94;78.55;100917.78;5073178;28;20461;-81
2021/03/09 01:26:49;;;;;;;109.85;44.20;;;5.70;95.40;;;5.94;78.23;100904.28;5072173;28;20055;-81
2021/03/09 01:29:16;;;;;;;97.10;43.05;;;5.80;95.30;;;5.93;78.66;100904.44;5072875;28;20523;-81
2021/03/09 01:31:43;;;;;;;107.22;44.03;;;5.80;95.30;;;5.91;78.27;100903.72;5071522;28;20585;-81
2021/03/09 01:34:10;;;;;;;103.30;42.88;;;5.70;95.40;;;5.88;78.68;100903.00;5072913;28;20644;-81
2021/03/09 01:36:37;;;;;;;102.95;43.45;;;5.70;95.40;;;5.85;78.66;100903.28;5070642;28;20057;-81
2021/03/09 01:39:05;;;;;;;95.38;42.47;;;5.70;95.60;;;5.93;78.61;100901.72;5072797;28;20044;-81
2021/03/09 01:41:31;;;;;;;109.70;44.53;;;5.60;95.60;;;5.89;78.38;100903.84;5072242;28;20048;-80
2021/03/09 01:43:59;;;;;;;107.55;44.78;;;5.70;95.60;;;5.86;78.72;100901.44;5072866;28;20072;-81
2021/03/09 01:46:25;;;;;;;103.80;44.95;;;5.70;95.60;;;5.86;78.69;100901.44;5070862;28;20504;-81
2021/03/09 01:48:56;;;;;;;95.78;42.78;;;5.70;95.60;;;5.86;78.79;100896.03;5072201;28;20036;-81
2021/03/09 01:51:23;;;;;;;99.75;43.40;;;5.70;95.70;;;5.87;78.64;100887.78;5072689;28;20044;-81
2021/03/09 01:53:51;;;;;;;104.97;43.38;;;5.70;95.70;;;5.87;78.76;100879.69;5072187;28;20072;-81
2021/03/09 01:56:17;;;;;;;107.05;43.78;;;5.70;95.70;;;5.90;78.35;100883.09;5071481;28;20052;-81
2021/03/09 01:58:49;;;;;;;97.95;43.28;;;5.70;95.70;;;5.88;78.67;100883.22;5072221;28;20123;-81
2021/03/09 02:01:17;;;;;;;102.38;43.85;;;5.70;95.70;;;5.90;78.60;100880.41;5072315;28;20037;-81
2021/03/09 02:03:43;;;;;;;111.28;43.25;;;5.70;95.70;;;5.87;78.81;100879.69;5072320;28;20069;-81
2021/03/09 02:06:12;;;;;;;100.10;43.38;;;5.70;95.80;;;5.86;78.40;100869.03;5071752;28;20052;-81
2021/03/09 02:08:40;;;;;;;102.65;44.28;;;5.60;95.60;;;5.83;78.83;100866.63;5072528;28;20544;-81
2021/03/09 02:11:19;;;;;;;95.32;40.80;;;5.60;95.80;;;5.86;78.58;100864.50;5071519;28;20071;-81
2021/03/09 02:13:57;;;;;;;102.90;41.80;;;5.70;95.70;;;5.86;78.34;100856.41;5072098;28;20458;-81
2021/03/09 02:16:33;;;;;;;93.68;42.05;;;5.70;95.70;;;5.90;78.74;100850.69;5071586;28;20072;-81
2021/03/09 02:19:16;;;;;;;87.32;40.85;;;5.70;95.70;;;5.88;78.58;100854.41;5071603;28;20055;-81
2021/03/09 02:22:10;;;;;;;97.80;41.47;;;5.70;95.70;;;5.87;78.37;100849.97;5072061;28;20590;-81
2021/03/09 02:24:59;;;;;;;93.95;40.67;;;5.70;95.50;;;5.86;78.36;100839.31;5071561;28;20064;-81
2021/03/09 02:27:44;;;;;;;84.82;37.38;;;5.70;95.60;;;5.88;78.23;100843.59;5070960;28;20809;-80
2021/03/09 02:30:23;;;;;;;90.55;38.40;;;5.70;95.70;;;5.86;78.36;100840.19;5071869;28;20075;-81
2021/03/09 02:33:00;;;;;;;86.88;37.50;;;5.60;95.80;;;5.88;78.32;100843.59;5071707;28;20051;-81
2021/03/09 02:35:29;;;;;;;86.85;38.50;;;5.70;95.70;;;5.87;78.22;100831.06;5072294;28;20079;-81
2021/03/09 02:38:01;;;;;;;84.13;38.42;;;5.60;95.60;;;5.85;78.12;100833.06;5071595;28;20076;-81
2021/03/09 02:40:29;;;;;;;92.50;40.00;;;5.60;95.40;;;5.83;78.49;100823.41;5072515;28;20075;-81
2021/03/09 02:43:05;;;;;;;95.70;39.77;;;5.60;95.40;;;5.83;78.52;100826.13;5072168;28;20071;-81
2021/03/09 02:45:33;;;;;;;91.30;39.70;;;5.60;95.70;;;5.83;78.43;100826.97;5071878;28;20045;-81
2021/03/09 02:48:01;;;;;;;94.60;41.30;;;5.60;95.50;;;5.79;78.38;100817.44;5071480;28;20060;-81
2021/03/09 02:50:29;;;;;;;94.47;40.92;;;5.60;95.60;;;5.81;78.61;100812.75;5069022;28;20045;-81
2021/03/09 02:53:02;;;;;;;90.90;38.75;;;5.70;95.90;;;5.80;78.74;100812.91;5061884;28;20036;-81
2021/03/09 02:55:30;;;;;;;89.80;38.10;;;5.60;95.80;;;5.79;78.68;100812.06;5071268;28;20079;-81
2021/03/09 02:57:58;;;;;;;85.25;38.00;;;5.60;95.70;;;5.79;78.34;100812.06;5071666;28;20044;-81
2021/03/09 03:00:26;;;;;;;94.50;38.78;;;5.60;95.80;;;5.79;78.33;100813.91;5071122;28;20133;-81
2021/03/09 03:02:55;;;;;;;92.60;39.45;;;5.60;95.80;;;5.79;78.66;100809.34;5071707;28;20098;-81
2021/03/09 03:05:23;;;;;;;85.15;38.80;;;5.60;95.80;;;5.78;78.42;100804.94;5071266;28;20056;-81
2021/03/09 03:07:51;;;;;;;83.32;37.15;;;5.60;95.70;;;5.78;78.40;100804.94;5070661;28;20119;-81
2021/03/09 03:10:20;;;;;;;86.95;38.70;;;5.60;95.60;;;5.78;78.12;100802.22;5071029;28;20430;-81
2021/03/09 03:12:49;;;;;;;82.47;36.47;;;5.50;95.60;;;5.77;78.49;100800.53;5071362;28;20095;-81
2021/03/09 03:15:18;;;;;;;82.47;36.55;;;5.60;95.70;;;5.81;78.33;100795.72;5069773;28;20045;-81
2021/03/09 03:17:46;;;;;;;79.47;36.17;;;5.50;95.90;;;5.80;77.99;100792.13;5070889;28;20068;-81
2021/03/09 03:20:18;;;;;;;78.15;34.40;;;5.50;95.80;;;5.76;78.53;100790.72;5071652;28;20089;-81
2021/03/09 03:22:49;;;;;;;74.57;35.10;;;5.50;95.70;;;5.76;78.33;100790.72;5071566;28;20044;-81
2021/03/09 03:25:16;;;;;;;81.55;36.38;;;5.50;95.80;;;5.78;78.63;100793.28;5070059;28;20045;-81
2021/03/09 03:27:45;;;;;;;79.05;35.55;;;5.50;95.90;;;5.81;78.35;100799.25;5068286;28;20413;-81
2021/03/09 03:30:16;;;;;;;80.03;36.03;;;5.70;96.00;;;5.77;78.10;100788.88;5068922;28;20048;-81
2021/03/09 03:32:44;;;;;;;71.28;34.33;;;5.50;95.50;;;5.78;78.29;100788.72;5069327;28;20447;-81
2021/03/09 03:35:13;;;;;;;82.47;35.65;;;5.50;95.50;;;5.74;77.96;100784.63;5069378;28;20613;-80
2021/03/09 03:37:43;;;;;;;77.93;34.70;;;5.50;95.50;;;5.73;78.30;100779.38;5067739;28;20056;-81
2021/03/09 03:40:13;;;;;;;74.60;34.50;;;5.50;95.50;;;5.74;78.23;100781.09;5070011;28;20044;-81
2021/03/09 03:42:40;;;;;;;74.85;33.67;;;5.50;95.60;;;5.74;78.09;100776.53;5070767;28;20866;-81
2021/03/09 03:45:09;;;;;;;75.82;34.78;;;5.50;95.60;;;5.73;78.32;100780.25;5070715;28;20450;-81
2021/03/09 03:47:38;;;;;;;72.97;32.58;;;5.50;95.70;;;5.74;78.04;100781.94;5069851;28;20063;-81
2021/03/09 03:50:06;;;;;;;78.35;33.80;;;5.50;95.60;;;5.71;78.17;100775.97;5071316;28;20060;-81
2021/03/09 03:52:45;;;;;;;77.13;34.20;;;5.50;95.40;;;5.71;78.25;100779.50;5071016;28;20036;-81
2021/03/09 03:55:26;;;;;;;76.30;35.25;;;5.50;95.50;;;5.71;78.15;100778.66;5070840;28;20408;-81
2021/03/09 03:57:59;;;;;;;73.07;34.60;;;5.50;95.60;;;5.72;78.23;100772.28;5070014;28;20064;-81
2021/03/09 04:00:28;;;;;;;78.20;34.95;;;5.50;95.50;;;5.71;78.48;100773.25;5070631;28;20110;-81
2021/03/09 04:02:56;;;;;;;75.55;34.83;;;5.40;95.40;;;5.69;78.54;100768.00;5070594;28;20040;-81
2021/03/09 04:05:25;;;;;;;76.05;35.80;;;5.40;95.60;;;5.68;78.37;100771.72;5070659;28;20058;-81
2021/03/09 04:07:54;;;;;;;84.93;37.28;;;5.40;95.60;;;5.66;78.28;100766.47;5069397;28;20070;-81
2021/03/09 04:10:23;;;;;;;89.97;38.58;;;5.40;95.70;;;5.67;78.31;100764.59;5072309;28;20063;-81
2021/03/09 04:12:51;;;;;;;78.90;37.15;;;5.40;95.90;;;5.67;78.84;100759.19;5071365;28;20167;-81
2021/03/09 04:15:21;;;;;;;80.70;38.17;;;5.40;96.00;;;5.66;78.47;100757.50;5073047;28;20064;-81
2021/03/09 04:17:48;;;;;;;83.60;38.45;;;5.40;95.90;;;5.66;78.42;100762.91;5071712;28;20477;-81
2021/03/09 04:20:16;;;;;;;90.28;40.30;;;5.40;95.90;;;5.67;78.43;100753.81;5071793;28;20049;-81
2021/03/09 04:22:43;;;;;;;86.22;40.13;;;5.40;95.60;;;5.67;78.36;100759.19;5073210;28;20135;-81
2021/03/09 04:25:13;;;;;;;88.47;39.92;;;5.40;95.60;;;5.67;78.47;100751.09;5073244;28;20441;-81
2021/03/09 04:27:41;;;;;;;88.80;40.72;;;5.40;95.60;;;5.66;78.45;100746.72;5072346;28;20076;-81
2021/03/09 04:30:12;;;;;;;91.80;41.85;;;5.40;95.70;;;5.65;78.10;100753.09;5073063;28;20044;-82
2021/03/09 04:32:39;;;;;;;;;;;5.40;95.40;;;5.63;78.25;100749.69;5073531;28;20052;-81
2021/03/09 04:35:08;;;;;;;88.15;38.75;;;5.40;95.60;;;5.63;78.33;100749.69;5073058;28;19971;-80
2021/03/09 04:37:36;;;;;;;92.03;41.85;;;5.30;95.70;;;5.64;78.26;100749.56;5071401;28;20515;-81
2021/03/09 04:40:05;;;;;;;88.72;40.45;;;5.40;95.90;;;5.64;78.32;100748.72;5073224;28;20040;-81
2021/03/09 04:42:32;;;;;;;88.35;41.78;;;5.30;95.80;;;5.62;78.69;100742.63;5073266;28;20516;-81
2021/03/09 04:44:59;;;;;;;92.72;41.80;;;5.30;96.00;;;5.63;78.50;100738.91;5073305;28;20115;-81
2021/03/09 04:47:27;;;;;;;93.63;44.10;;;5.40;96.00;;;5.62;78.42;100739.91;5072882;28;20068;-81
2021/03/09 04:49:56;;;;;;;83.55;39.95;;;5.30;96.00;;;5.59;78.53;100734.78;5071460;28;20061;-81
2021/03/09 04:52:24;;;;;;;87.45;40.53;;;5.30;96.20;;;5.59;78.32;100734.78;5072864;28;20060;-81
2021/03/09 04:54:51;;;;;;;92.53;43.25;;;5.30;96.20;;;5.57;78.44;100734.09;5073422;28;20060;-80
2021/03/09 04:57:18;;;;;;;88.13;41.65;;;5.30;96.20;;;5.57;78.50;100726.00;5071858;28;20048;-81
2021/03/09 04:59:46;;;;;;;92.00;43.22;;;5.30;96.10;;;5.56;78.73;100740.47;5073208;28;20044;-81
2021/03/09 05:02:12;;;;;;;91.90;42.08;;;5.30;96.30;;;5.56;78.86;100730.56;5072745;28;20469;-81
2021/03/09 05:04:40;;;;;;;95.40;43.38;;;5.30;96.40;;;5.57;78.78;100734.94;5072552;28;20493;-81
2021/03/09 05:07:07;;;;;;;92.93;43.05;;;5.30;96.30;;;5.58;78.51;100730.38;5071728;28;20105;-81
2021/03/09 05:09:34;;;;;;;93.35;43.45;;;5.30;96.40;;;5.57;78.46;100731.41;5073095;28;20051;-81
2021/03/09 05:12:02;;;;;;;99.43;45.30;;;5.30;96.30;;;5.60;78.46;100729.25;5071267;28;20059;-81
2021/03/09 05:14:28;;;;;;;91.05;43.92;;;5.30;96.20;;;5.59;78.56;100726.69;5072520;28;20048;-81
2021/03/09 05:16:56;;;;;;;86.85;42.30;;;5.30;96.10;;;5.57;78.22;100720.59;5070161;28;20497;-83
2021/03/09 05:19:23;;;;;;;89.60;42.15;;;5.30;96.00;;;5.58;78.53;100717.75;5070668;28;20754;-82
2021/03/09 05:21:50;;;;;;;92.80;43.42;;;5.30;96.00;;;5.57;78.41;100724.13;5069040;28;20037;-82
2021/03/09 05:24:16;;;;;;;89.95;44.75;;;5.30;96.10;;;5.60;78.30;100714.91;5070758;28;20060;-83
2021/03/09 05:26:43;;;;;;;85.18;42.30;;;5.30;96.30;;;5.55;78.56;100709.94;5069879;28;20129;-82
2021/03/09 05:29:10;;;;;;;86.13;41.63;;;5.30;96.10;;;5.59;78.25;100713.19;5074775;28;20060;-81
2021/03/09 05:31:37;;;;;;;95.95;43.45;;;5.30;96.00;;;5.58;78.27;100714.19;5074368;28;20578;-82
2021/03/09 05:34:04;;;;;;;88.10;43.10;;;5.30;95.90;;;5.58;78.35;100711.47;5074446;28;20049;-81
2021/03/09 05:36:33;;;;;;;90.00;43.45;;;5.30;96.20;;;5.59;78.71;100710.50;5073862;28;20052;-81
2021/03/09 05:39:00;;;;;;;96.22;44.40;;;5.30;96.20;;;5.59;78.49;100713.19;5071042;28;20057;-82
2021/03/09 05:41:27;;;;;;;91.97;44.03;;;5.30;96.30;;;5.59;78.69;100705.09;5071759;28;20048;-82
2021/03/09 05:43:54;;;;;;;94.13;43.58;;;5.30;96.30;;;5.56;78.17;100698.16;5071920;28;20056;-83
2021/03/09 05:46:20;;;;;;;92.13;42.58;;;5.40;96.30;;;5.57;78.44;100702.53;5071203;28;20508;-83
2021/03/09 05:48:47;;;;;;;87.75;42.95;;;5.30;96.30;;;5.58;78.13;100700.69;5072497;28;20048;-83
2021/03/09 05:51:15;;;;;;;99.97;44.17;;;5.30;96.50;;;5.49;78.43;100697.88;5071482;28;20041;-82
2021/03/09 05:53:42;;;;;;;90.65;42.65;;;5.30;96.30;;;5.47;78.90;100697.19;5072106;28;20051;-82
2021/03/09 05:56:09;;;;;;;90.88;43.08;;;5.30;96.30;;;5.47;78.65;100694.47;5073540;28;20071;-81
2021/03/09 05:58:36;;;;;;;92.80;43.50;;;5.30;96.10;;;5.53;78.62;100703.00;5072837;28;20059;-82
2021/03/09 06:01:03;;;;;;;95.88;43.20;;;5.30;96.10;;;5.51;78.87;100699.59;5072593;28;20051;-82
2021/03/09 06:03:29;;;;;;;89.30;42.83;;;5.30;96.10;;;5.52;78.80;100698.56;5072700;28;20055;-83
2021/03/09 06:05:57;;;;;;;94.63;43.33;;;5.30;96.10;;;5.52;78.71;100701.28;5077586;28;20056;-82
2021/03/09 06:08:25;;;;;;;93.03;44.17;;;5.30;96.30;;;5.52;78.93;100695.88;5073918;28;20402;-83
2021/03/09 06:11:13;;;;;;;91.70;44.10;;;5.30;96.20;;;5.51;79.19;100697.72;5075040;28;20048;-83
2021/03/09 06:13:40;;;;;;;97.53;45.65;;;5.30;96.30;;;5.53;79.02;100695.75;5075732;28;20086;-83
2021/03/09 06:16:07;;;;;;;86.93;42.38;;;5.30;96.30;;;5.54;78.99;100699.28;5076257;28;20123;-83
2021/03/09 06:18:34;;;;;;;96.25;44.63;;;5.30;96.40;;;5.56;79.20;100691.88;5075325;28;20412;-83
2021/03/09 06:21:12;;;;;;;89.35;42.88;;;5.30;96.30;;;5.54;78.87;100693.88;5075345;28;20048;-83
2021/03/09 06:23:41;;;;;;;90.30;41.78;;;5.30;96.30;;;5.57;78.88;100690.91;5076361;28;20056;-83
2021/03/09 06:26:34;;;;;;;93.85;43.53;;;5.30;96.30;;;5.58;78.65;100682.66;5073168;28;20098;-83
2021/03/09 06:29:11;;;;;;;95.20;42.08;;;5.30;96.40;;;5.55;78.87;100674.00;5070491;28;20043;-83
2021/03/09 06:31:38;;;;;;;91.20;42.53;;;5.30;96.40;;;5.54;78.87;100683.09;5070599;28;20071;-81
2021/03/09 06:34:26;;;;;;;77.57;38.60;;;5.30;96.40;;;5.52;78.99;100685.94;5069612;28;20125;-81
2021/03/09 06:37:09;;;;;;;76.03;38.42;;;5.30;96.50;;;5.56;79.01;100683.78;5066493;28;20042;-83
2021/03/09 06:39:52;;;;;;;89.55;39.85;;;5.30;96.30;;;5.55;78.82;100677.53;5065341;28;20064;-83
2021/03/09 06:42:21;;;;;;;80.47;39.35;;;5.30;96.20;;;5.54;78.94;100678.56;5071781;28;20098;-82
2021/03/09 06:44:51;;;;;;;78.78;38.22;;;5.30;96.30;;;5.52;79.01;100675.16;5069616;28;20083;-84
2021/03/09 06:47:37;;;;;;;71.68;36.35;;;5.30;96.10;;;5.47;79.03;100675.59;5067428;28;20052;-83
2021/03/09 06:50:08;;;;;;;80.60;38.58;;;5.40;95.80;;;5.54;78.67;100678.56;5069441;28;20040;-83
2021/03/09 06:52:35;;;;;;;74.10;36.92;;;5.40;96.00;;;5.49;78.85;100680.84;5069189;28;20131;-83
2021/03/09 06:55:05;;;;;;;77.40;37.58;;;5.40;95.70;;;5.54;78.84;100685.78;5067577;28;20179;-83
2021/03/09 06:57:32;;;;;;;71.05;35.72;;;5.40;95.80;;;5.52;78.29;100677.84;5064926;28;20068;-84
2021/03/09 06:59:58;;;;;;;71.82;35.92;;;5.40;95.70;;;5.53;78.62;100684.09;5071616;28;20076;-83
2021/03/09 07:02:27;;;;;;;75.55;36.28;;;5.40;95.60;;;5.49;79.09;100683.53;5070040;28;20044;-84
2021/03/09 07:05:02;;;;;;;68.30;34.15;;;5.40;95.70;;;5.51;78.57;100680.69;5056150;28;20087;-84
2021/03/09 07:07:31;;;;;;;71.63;34.88;;;5.40;95.80;;;5.54;78.77;100678.56;5065014;28;20754;-84
2021/03/09 07:10:00;;;;;;;72.88;34.45;;;5.70;95.90;;;5.56;78.76;100683.78;5068253;28;20048;-83
2021/03/09 07:12:29;;;;;;;65.07;33.80;;;5.40;95.50;;;5.56;78.66;100681.09;5065262;28;20041;-82
2021/03/09 07:14:58;;;;;;;70.78;35.28;;;5.40;95.80;;;5.55;78.89;100684.78;5069256;28;20048;-82
2021/03/09 07:17:28;;;;;;;67.22;34.35;;;5.40;95.80;;;5.58;78.77;100684.47;5069172;28;20044;-82
2021/03/09 07:19:56;;;;;;;62.45;31.48;;;5.40;95.90;;;5.54;78.57;100683.09;5069983;28;20070;-82
2021/03/09 07:22:26;;;;;;;63.10;32.55;;;5.40;95.50;;;5.49;78.46;100687.06;5070210;28;20133;-82
2021/03/09 07:25:01;;;;;;;65.15;32.88;;;5.40;95.50;;;5.49;78.49;100687.06;5070227;28;20040;-83
2021/03/09 07:27:40;;;;;;;59.28;30.83;;;5.40;95.60;;;5.49;78.52;100697.03;5069832;28;20041;-82
2021/03/09 07:30:10;;;;;;;61.80;31.95;;;5.40;95.40;;;5.45;78.94;100691.06;5070735;28;20040;-83
2021/03/09 07:32:41;;;;;;;61.28;32.33;;;5.40;95.50;;;5.48;78.79;100688.09;5066778;28;20044;-82
2021/03/09 07:35:10;;;;;;;63.13;32.27;;;5.40;95.20;;;5.52;78.91;100695.88;5089943;28;20048;-83
2021/03/09 07:37:39;;;;;;;64.85;32.60;;;5.40;95.30;;;5.52;78.81;100694.06;5071036;28;20293;-83
2021/03/09 07:40:09;;;;;;;64.55;33.22;;;5.30;95.80;;;5.48;78.91;100690.78;5070703;28;20110;-83
2021/03/09 07:42:37;;;;;;;67.18;33.13;;;5.40;95.80;;;5.49;78.83;100695.19;5069837;28;20523;-82
2021/03/09 07:45:09;;;;;;;67.25;35.42;;;5.30;95.80;;;5.49;78.94;100695.19;5071188;28;20504;-83
2021/03/09 07:47:40;;;;;;;67.10;34.10;;;5.30;95.80;;;5.52;78.65;100696.75;5072633;28;20075;-82
2021/03/09 07:50:12;;;;;;;71.32;34.92;;;5.30;96.00;;;5.53;78.80;100692.19;5072798;28;20076;-82
2021/03/09 07:52:38;;;;;;;66.43;33.70;;;5.30;95.90;;;5.50;78.72;100690.63;5073812;28;20041;-82
2021/03/09 07:55:21;;;;;;;70.32;34.42;;;5.30;95.90;;;5.52;78.82;100694.06;5076584;28;20049;-82
2021/03/09 07:58:10;;;;;;;68.75;35.05;;;5.30;95.90;;;5.47;79.18;100689.06;5077156;28;20052;-82
2021/03/09 08:00:49;;;;;;;65.05;33.08;;;5.30;96.00;;;5.46;79.00;100691.91;5078203;28;20060;-84
2021/03/09 08:03:19;;;;;;;64.13;31.52;;;5.30;96.00;;;5.49;78.99;100692.47;5079056;28;20110;-84
2021/03/09 08:05:52;;;;;;;68.78;33.72;;;5.30;96.00;;;5.48;78.95;100690.78;5076315;28;20052;-83
2021/03/09 08:08:42;;;;;;;65.03;33.15;;;5.40;96.00;;;5.53;79.14;100695.75;5076557;28;20049;-83
2021/03/09 08:11:36;;;;;;;68.72;34.67;;;5.40;96.10;;;5.56;79.57;100686.47;5055791;28;20049;-84
2021/03/09 08:14:23;;;;;;;65.97;35.05;;;5.40;96.10;;;5.55;79.37;100690.19;5057406;28;20060;-84
2021/03/09 08:16:51;;;;;;;72.25;35.55;;;5.50;96.30;;;5.58;79.46;100689.88;5054506;28;20099;-83
2021/03/09 08:19:39;;;;;;;62.22;31.55;;;5.50;96.30;;;5.58;79.31;100688.06;5058618;28;20057;-83
2021/03/09 08:22:07;;;;;;;64.90;33.25;;;5.50;96.40;;;5.58;79.33;100679.97;5058374;28;20101;-83
2021/03/09 08:24:54;;;;;;;67.85;32.97;;;5.60;96.20;;;5.57;79.70;100683.63;5073155;28;20053;-82
2021/03/09 08:27:41;;;;;;;60.65;32.15;;;5.60;96.40;;;5.60;79.93;100682.50;5058910;28;20052;-81
2021/03/09 08:30:32;;;;;;;61.40;30.65;;;5.60;96.30;;;5.59;79.87;100686.19;5059452;28;20465;-81
2021/03/09 08:33:37;;;;;;;57.80;31.63;;;5.60;96.60;;;5.62;80.28;100686.75;5045719;28;20413;-82
2021/03/09 08:36:32;;;;;;;63.45;33.38;;;5.60;96.30;;;5.64;79.99;100689.31;5059286;28;20044;-82
2021/03/09 08:39:18;;;;;;;68.57;33.38;;;5.70;96.60;;;5.66;80.49;100690.84;5059420;28;20294;-82
2021/03/09 08:42:01;;;;;;;60.33;31.02;;;5.70;96.50;;;5.70;80.27;100691.41;5067960;28;20044;-82
2021/03/09 08:44:28;;;;;;;61.63;30.85;;;5.70;96.60;;;5.73;80.28;100683.03;5066610;28;20052;-82
2021/03/09 08:46:59;;;;;;;57.25;30.17;;;5.70;96.60;;;5.71;79.89;100685.00;5068328;28;20048;-82
2021/03/09 08:49:49;;;;;;;56.13;30.80;;;5.70;96.50;;;5.68;80.23;100679.91;5069645;28;20710;-83
2021/03/09 08:52:41;;;;;;;52.20;29.38;;;5.70;96.50;;;5.63;80.19;100682.19;5069107;28;20294;-82
2021/03/09 08:55:09;;;;;;;54.50;28.67;;;5.70;96.40;;;5.65;79.85;100674.81;5056535;28;20049;-82
2021/03/09 08:57:36;;;;;;;60.40;30.30;;;5.70;96.00;;;5.67;79.58;100678.19;5064375;28;20102;-82
2021/03/09 09:00:08;;;;;;;55.10;29.80;;;5.70;96.20;;;5.66;79.78;100671.97;5060733;28;20091;-82
2021/03/09 09:02:42;;;;;;;53.95;28.60;;;5.60;96.20;;;5.63;80.04;100679.50;5078661;28;20055;-82
2021/03/09 09:05:12;;;;;;;56.40;29.40;;;5.60;96.40;;;5.66;79.78;100674.66;5080306;28;20071;-82
2021/03/09 09:07:41;;;;;;;59.03;30.60;;;5.70;96.10;;;5.68;79.77;100674.50;5076642;28;20044;-82
2021/03/09 09:10:13;;;;;;;58.05;30.17;;;5.60;96.20;;;5.67;79.68;100672.78;5075048;28;20048;-83
2021/03/09 09:12:41;;;;;;;;;;;5.70;96.40;;;5.68;79.70;100664.56;5078019;28;20588;-83
2021/03/09 09:15:23;;;;;;;51.90;27.83;;;5.60;96.40;;;5.71;79.93;100668.78;5077901;28;19921;-82
2021/03/09 09:17:56;;;;;;;50.83;27.00;;;5.70;96.50;;;5.69;79.70;100665.41;5078787;28;20607;-82
2021/03/09 09:20:36;;;;;;;53.50;27.40;;;5.80;96.20;;;5.71;79.68;100668.78;5082039;28;20064;-82
2021/03/09 09:23:08;;;;;;;51.03;27.35;;;5.80;96.10;;;5.66;80.10;100665.72;5080696;28;20064;-83
2021/03/09 09:25:36;;;;;;;50.33;27.60;;;5.80;95.90;;;5.68;79.92;100663.72;5079252;28;20127;-82
2021/03/09 09:28:04;;;;;;;56.50;29.55;;;5.80;96.00;;;5.72;80.18;100670.50;5077786;28;20040;-82
2021/03/09 09:30:38;;;;;;;47.60;25.85;;;5.80;96.30;;;5.68;80.67;100659.16;5073718;28;20096;-82
2021/03/09 09:33:05;;;;;;;49.70;27.40;;;5.80;96.30;;;5.72;80.25;100659.72;5066646;28;20753;-83
2021/03/09 09:35:33;;;;;;;53.97;28.30;;;5.80;96.30;;;5.75;80.52;100658.53;5069139;28;20051;-82
2021/03/09 09:38:04;;;;;;;48.45;27.38;;;5.90;96.50;;;5.75;80.52;100656.72;5080867;28;20079;-83
2021/03/09 09:40:34;;;;;;;46.00;25.27;;;5.90;96.30;;;5.80;80.40;100665.19;5081108;28;20040;-83
2021/03/09 09:43:07;;;;;;;46.10;26.17;;;5.90;96.30;;;5.75;80.61;100663.94;5077887;28;20029;-82
2021/03/09 09:45:42;;;;;;;43.85;25.05;;;5.90;96.10;;;5.81;81.05;100668.78;5078254;28;20056;-83
2021/03/09 09:48:13;;;;;;;43.80;23.83;;;6.00;96.40;;;5.77;80.93;100661.94;5069524;28;20098;-83
2021/03/09 09:50:47;;;;;;;41.17;23.00;;;6.10;96.40;;;5.77;81.15;100660.13;5077363;28;20045;-83
2021/03/09 09:53:30;;;;;;;39.55;22.20;;;6.10;95.90;;;5.76;81.03;100665.66;5076503;28;20059;-83
2021/03/09 09:55:57;;;;;;;38.80;21.15;;;6.10;95.90;;;5.68;81.84;100663.72;5077596;28;20053;-83
2021/03/09 09:58:43;;;;;;;40.25;23.65;;;6.20;95.80;;;5.72;81.37;100670.50;5056377;28;20056;-83
2021/03/09 10:01:11;;;;;;;44.33;24.25;;;6.10;95.50;;;5.79;81.05;100666.22;5072450;28;20044;-83
2021/03/09 10:03:51;;;;;;;40.33;22.10;;;6.10;95.90;;;5.83;80.54;100670.31;5070963;28;20053;-83
2021/03/09 10:06:19;;;;;;;40.38;22.58;;;6.00;95.50;;;5.78;80.42;100664.50;5068688;28;20049;-87
2021/03/09 10:08:50;;;;;;;38.08;21.95;;;6.00;95.20;;;5.78;80.18;100672.59;5065794;28;20036;-83
2021/03/09 10:11:17;;;;;;;40.75;22.35;;;6.00;95.30;;;5.78;80.33;100669.91;5064042;28;20044;-83
2021/03/09 10:13:45;;;;;;;38.80;22.45;;;5.90;95.70;;;5.79;80.75;100659.97;5058964;28;20041;-83
2021/03/09 10:16:12;;;;;;;37.47;21.63;;;5.90;96.10;;;5.81;80.27;100664.22;5069033;28;20059;-83
2021/03/09 10:18:40;;;;;;;37.67;21.60;;;5.80;96.20;;;5.82;80.06;100671.31;5068017;28;20063;-82
2021/03/09 10:21:11;;;;;;;43.95;23.15;;;5.90;96.30;;;5.81;80.87;100663.38;5069748;28;20036;-82
2021/03/09 10:23:57;;;;;;;36.40;20.92;;;5.90;96.30;;;5.78;80.75;100669.91;5070336;28;20049;-82
2021/03/09 10:26:34;;;;;;;41.95;22.63;;;6.00;96.30;;;5.81;81.04;100663.38;5070330;28;20044;-83
2021/03/09 10:29:07;;;;;;;42.75;23.85;;;6.00;96.20;;;5.84;81.00;100666.59;5069917;28;20087;-82